createdAt,value
2023-02-14T00:02:44.785Z,1.91
2023-02-14T00:05:50.429Z,1.87
2023-02-14T00:08:54.699Z,1.83
2023-02-14T00:11:57.729Z,1.76
2023-02-14T00:15:19.032Z,1.76
2023-02-14T00:18:22.010Z,1.78
2023-02-14T00:21:24.533Z,1.80
2023-02-14T00:24:27.969Z,1.78
2023-02-14T00:27:30.893Z,1.68
2023-02-14T00:30:37.035Z,1.70
2023-02-14T00:33:40.593Z,1.63
2023-02-14T00:36:43.799Z,1.58
2023-02-14T00:39:46.274Z,1.58
2023-02-14T00:42:49.170Z,1.64
2023-02-14T00:45:51.980Z,1.67
2023-02-14T00:48:55.654Z,1.69
2023-02-14T00:51:58.184Z,1.66
2023-02-14T00:55:01.063Z,1.61
2023-02-14T00:58:03.667Z,1.47
2023-02-14T01:01:07.444Z,1.49
2023-02-14T01:04:10.976Z,1.49
2023-02-14T01:07:14.496Z,1.38
2023-02-14T01:10:17.805Z,1.43
2023-02-14T01:13:21.892Z,1.45
2023-02-14T01:16:28.325Z,1.40
2023-02-14T01:19:31.535Z,1.33
2023-02-14T01:22:38.981Z,1.39
2023-02-14T01:25:41.871Z,1.37
2023-02-14T01:28:45.578Z,1.40
2023-02-14T01:31:49.394Z,1.37
2023-02-14T01:34:52.990Z,1.34
2023-02-14T01:37:55.915Z,1.16
2023-02-14T01:40:58.964Z,1.16
2023-02-14T01:44:06.491Z,1.24
2023-02-14T01:47:10.837Z,1.16
2023-02-14T01:50:22.605Z,1.09
2023-02-14T01:53:28.843Z,1.12
2023-02-14T01:56:45.907Z,1.13
2023-02-14T01:59:53.592Z,1.15
2023-02-14T02:02:59.526Z,1.37
2023-02-14T02:06:05.346Z,1.43
2023-02-14T02:09:23.533Z,1.60
2023-02-14T02:12:29.832Z,1.77
2023-02-14T02:15:46.915Z,1.86
2023-02-14T02:19:30.116Z,1.86
2023-02-14T02:22:56.994Z,1.90
2023-02-14T02:26:18.442Z,1.83
2023-02-14T02:29:46.179Z,1.74
2023-02-14T02:33:21.836Z,1.64
2023-02-14T02:36:27.102Z,1.68
2023-02-14T02:40:11.256Z,1.52
2023-02-14T02:43:35.830Z,1.61
2023-02-14T02:46:47.950Z,1.49
2023-02-14T02:50:21.255Z,1.38
2023-02-14T02:53:33.805Z,1.23
2023-02-14T02:56:46.908Z,1.08
2023-02-14T02:59:52.247Z,0.92
2023-02-14T03:03:16.498Z,0.79
2023-02-14T03:06:19.432Z,0.75
2023-02-14T03:09:27.793Z,0.75
2023-02-14T03:12:34.295Z,0.74
2023-02-14T03:16:10.367Z,0.68
2023-02-14T03:19:16.204Z,0.76
2023-02-14T03:22:34.062Z,0.86
2023-02-14T03:25:48.343Z,0.81
2023-02-14T03:28:51.388Z,0.88
2023-02-14T03:32:17.661Z,0.99
2023-02-14T03:35:26.232Z,0.93
2023-02-14T03:38:47.112Z,0.99
2023-02-14T03:41:57.432Z,0.96
2023-02-14T03:45:02.375Z,1.04
2023-02-14T03:48:11.002Z,0.93
2023-02-14T03:51:16.813Z,0.94
2023-02-14T03:54:20.549Z,0.97
2023-02-14T03:57:29.018Z,0.99
2023-02-14T04:00:32.709Z,0.99
2023-02-14T04:03:39.157Z,1.15
2023-02-14T04:06:41.785Z,1.11
2023-02-14T04:09:45.120Z,1.06
2023-02-14T04:12:48.167Z,1.05
2023-02-14T04:15:51.024Z,1.05
2023-02-14T04:19:12.119Z,1.05
2023-02-14T04:22:15.020Z,1.04
2023-02-14T04:25:19.045Z,1.16
2023-02-14T04:28:21.887Z,1.34
2023-02-14T04:31:24.707Z,1.37
2023-02-14T04:34:27.641Z,1.23
2023-02-14T04:37:30.268Z,1.23
2023-02-14T04:40:33.230Z,1.11
2023-02-14T04:43:35.919Z,1.16
2023-02-14T04:46:38.982Z,1.06
2023-02-14T04:49:41.584Z,0.99
2023-02-14T04:52:44.498Z,0.89
2023-02-14T04:55:49.227Z,0.89
2023-02-14T04:58:52.076Z,0.88
2023-02-14T05:01:54.833Z,0.91
2023-02-14T05:04:57.708Z,0.82
2023-02-14T05:08:00.335Z,0.74
2023-02-14T05:11:03.344Z,0.68
2023-02-14T05:14:06.023Z,0.75
2023-02-14T05:17:08.954Z,0.68
2023-02-14T05:20:11.718Z,0.65
2023-02-14T05:23:14.620Z,0.66
2023-02-14T05:26:17.726Z,0.80
2023-02-14T05:29:20.828Z,0.71
2023-02-14T05:32:23.494Z,0.69
2023-02-14T05:35:26.894Z,0.62
2023-02-14T05:38:30.804Z,0.63
2023-02-14T05:41:33.604Z,0.66
2023-02-14T05:44:36.164Z,0.63
2023-02-14T05:47:39.643Z,0.56
2023-02-14T05:50:42.710Z,0.50
2023-02-14T05:53:45.648Z,0.49
2023-02-14T05:56:48.211Z,0.47
2023-02-14T05:59:51.092Z,0.39
2023-02-14T06:02:56.345Z,0.57
2023-02-14T06:05:59.215Z,0.66
2023-02-14T06:09:01.931Z,0.72
2023-02-14T06:12:05.186Z,0.79
2023-02-14T06:15:07.865Z,0.74
2023-02-14T06:18:10.848Z,0.79
2023-02-14T06:21:13.482Z,0.81
2023-02-14T06:24:16.574Z,0.81
2023-02-14T06:27:19.145Z,0.83
2023-02-14T06:30:22.239Z,0.95
2023-02-14T06:33:24.831Z,1.00
2023-02-14T06:36:27.942Z,1.03
2023-02-14T06:39:30.466Z,1.04
2023-02-14T06:42:33.738Z,1.07
2023-02-14T06:45:36.501Z,1.14
2023-02-14T06:48:39.454Z,1.17
2023-02-14T06:51:42.038Z,1.20
2023-02-14T06:54:44.894Z,1.29
2023-02-14T06:57:47.482Z,1.37
2023-02-14T07:00:50.587Z,1.47
2023-02-14T07:03:53.159Z,1.55
2023-02-14T07:06:56.005Z,1.69
2023-02-14T07:09:58.643Z,1.80
2023-02-14T07:13:01.725Z,1.94
2023-02-14T07:16:04.672Z,2.09
2023-02-14T07:19:07.572Z,2.20
2023-02-14T07:22:10.281Z,2.31
2023-02-14T07:25:14.050Z,2.43
2023-02-14T07:28:16.642Z,2.50
2023-02-14T07:31:23.781Z,2.61
2023-02-14T07:34:27.424Z,2.68
2023-02-14T07:37:32.678Z,2.72
2023-02-14T07:40:35.337Z,2.74
2023-02-14T07:43:39.737Z,2.86
2023-02-14T07:46:42.380Z,3.04
2023-02-14T07:49:45.378Z,3.14
2023-02-14T07:52:48.337Z,3.22
2023-02-14T07:55:52.769Z,3.33
2023-02-14T07:58:55.542Z,3.47
2023-02-14T08:01:58.864Z,3.52
2023-02-14T08:05:01.814Z,3.67
2023-02-14T08:08:04.612Z,3.83
2023-02-14T08:11:07.575Z,3.85
2023-02-14T08:14:10.260Z,3.93
2023-02-14T08:17:16.191Z,4.09
2023-02-14T08:20:18.939Z,4.26
2023-02-14T08:23:22.454Z,4.36
2023-02-14T08:26:25.223Z,4.40
2023-02-14T08:29:28.232Z,4.46
2023-02-14T08:32:30.990Z,4.60
2023-02-14T08:35:34.938Z,4.68
2023-02-14T08:38:37.692Z,4.75
2023-02-14T08:41:40.907Z,4.90
2023-02-14T08:44:43.594Z,4.99
2023-02-14T08:47:46.593Z,5.22
2023-02-14T08:50:50.261Z,5.38
2023-02-14T08:53:55.076Z,5.31
2023-02-14T08:56:58.141Z,5.43
2023-02-14T09:00:01.469Z,5.55
2023-02-14T09:03:04.426Z,5.67
2023-02-14T09:06:10.477Z,5.57
2023-02-14T09:09:13.244Z,5.53
2023-02-14T09:12:16.322Z,5.72
2023-02-14T09:15:19.287Z,5.84
2023-02-14T09:18:22.452Z,5.83
2023-02-14T09:21:27.132Z,5.96
2023-02-14T09:24:34.081Z,6.07
2023-02-14T09:27:37.021Z,6.28
2023-02-14T09:30:39.967Z,6.47
2023-02-14T09:33:43.990Z,6.57
2023-02-14T09:36:46.906Z,6.68
2023-02-14T09:39:49.533Z,6.77
2023-02-14T09:43:39.004Z,6.89
2023-02-14T09:46:48.814Z,6.95
2023-02-14T09:49:53.467Z,7.00
2023-02-14T09:53:00.608Z,7.05
2023-02-14T09:56:19.831Z,6.87
2023-02-14T09:59:29.334Z,7.16
2023-02-14T10:02:41.672Z,7.11
2023-02-14T10:06:06.055Z,7.11
2023-02-14T10:09:14.595Z,7.27
2023-02-14T10:12:26.549Z,7.33
2023-02-14T10:15:34.474Z,7.41
2023-02-14T10:18:50.266Z,7.17
2023-02-14T10:22:01.441Z,7.25
2023-02-14T10:25:17.227Z,7.36
2023-02-14T10:28:54.359Z,7.40
2023-02-14T10:32:02.955Z,7.49
2023-02-14T10:35:31.428Z,7.68
2023-02-14T10:39:01.162Z,7.67
2023-02-14T10:42:15.104Z,7.63
2023-02-14T10:45:27.718Z,7.80
2023-02-14T10:48:59.536Z,7.80
2023-02-14T10:52:16.688Z,7.59
2023-02-14T10:55:32.420Z,7.62
2023-02-14T10:58:40.461Z,7.88
2023-02-14T11:01:44.066Z,8.01
2023-02-14T11:04:49.242Z,7.99
2023-02-14T11:07:52.019Z,8.08
2023-02-14T11:11:03.381Z,8.22
2023-02-14T11:14:34.051Z,8.32
2023-02-14T11:17:38.011Z,8.27
2023-02-14T11:20:40.678Z,8.47
2023-02-14T11:23:46.306Z,8.18
2023-02-14T11:26:52.933Z,8.28
2023-02-14T11:29:56.077Z,8.26
2023-02-14T11:32:58.846Z,8.43
2023-02-14T11:36:03.718Z,8.30
2023-02-14T11:39:22.025Z,8.42
2023-02-14T11:42:40.495Z,8.67
2023-02-14T11:45:45.558Z,8.67
2023-02-14T11:49:01.495Z,8.62
2023-02-14T11:52:16.059Z,8.78
2023-02-14T11:55:28.387Z,8.84
2023-02-14T11:58:41.833Z,8.91
2023-02-14T12:01:46.443Z,8.65
2023-02-14T12:04:54.596Z,8.61
2023-02-14T12:08:00.743Z,8.42
2023-02-14T12:11:20.530Z,8.28
2023-02-14T12:14:25.086Z,8.41
2023-02-14T12:17:37.681Z,8.48
2023-02-14T12:21:06.259Z,8.80
2023-02-14T12:24:46.237Z,8.95
2023-02-14T12:28:01.406Z,9.12
2023-02-14T12:31:12.586Z,9.24
2023-02-14T12:34:17.743Z,9.28
2023-02-14T12:37:29.447Z,9.10
2023-02-14T12:40:37.985Z,9.05
2023-02-14T12:43:57.482Z,9.11
2023-02-14T12:47:00.005Z,9.17
2023-02-14T12:50:24.522Z,9.34
2023-02-14T12:53:49.413Z,9.46
2023-02-14T12:57:07.443Z,9.62
2023-02-14T13:00:24.627Z,9.48
2023-02-14T13:03:57.677Z,9.57
2023-02-14T13:07:08.738Z,9.59
2023-02-14T13:10:30.153Z,9.39
2023-02-14T13:13:56.021Z,9.46
2023-02-14T13:17:35.022Z,9.53
2023-02-14T13:21:01.517Z,9.50
2023-02-14T13:24:19.854Z,9.49
2023-02-14T13:27:31.201Z,9.61
2023-02-14T13:30:37.162Z,9.67
2023-02-14T13:33:48.562Z,9.53
2023-02-14T13:36:51.825Z,9.65
2023-02-14T13:39:58.353Z,9.55
2023-02-14T13:43:02.353Z,9.47
2023-02-14T13:46:04.992Z,9.40
2023-02-14T13:49:26.012Z,9.52
2023-02-14T13:52:46.233Z,9.49
2023-02-14T13:55:55.796Z,9.42
2023-02-14T13:59:03.078Z,9.65
2023-02-14T14:02:43.825Z,9.62
2023-02-14T14:05:49.124Z,9.45
2023-02-14T14:08:55.666Z,9.67
2023-02-14T14:11:59.713Z,9.66
2023-02-14T14:15:05.107Z,9.71
2023-02-14T14:18:13.947Z,10.04
2023-02-14T14:21:31.459Z,10.78
2023-02-14T14:24:39.909Z,11.35
2023-02-14T14:27:46.175Z,11.98
2023-02-14T14:30:49.764Z,13.20
2023-02-14T14:34:02.182Z,13.77
2023-02-14T14:37:17.793Z,14.56
2023-02-14T14:40:28.796Z,15.28
2023-02-14T14:43:34.838Z,15.77
2023-02-14T14:46:37.769Z,16.23
2023-02-14T14:49:41.024Z,16.33
2023-02-14T14:52:47.503Z,16.44
2023-02-14T14:55:52.363Z,16.01
2023-02-14T14:58:55.110Z,16.28
2023-02-14T15:01:58.464Z,15.74
2023-02-14T15:05:18.154Z,16.15
2023-02-14T15:08:33.430Z,16.17
2023-02-14T15:11:55.211Z,15.73
2023-02-14T15:14:58.476Z,15.40
2023-02-14T15:18:05.619Z,14.51
2023-02-14T15:21:09.097Z,13.29
2023-02-14T15:24:18.344Z,12.17
2023-02-14T15:27:25.457Z,11.23
2023-02-14T15:30:34.244Z,10.40
2023-02-14T15:33:38.203Z,9.93
2023-02-14T15:36:46.619Z,9.50
2023-02-14T15:39:58.297Z,8.98
2023-02-14T15:43:16.022Z,8.53
2023-02-14T15:46:28.017Z,8.20
2023-02-14T15:49:35.667Z,7.89
2023-02-14T15:52:41.137Z,7.64
2023-02-14T15:55:44.602Z,7.45
2023-02-14T15:58:48.429Z,7.09
2023-02-14T16:01:56.322Z,6.78
2023-02-14T16:05:06.495Z,6.51
2023-02-14T16:08:30.924Z,6.29
2023-02-14T16:11:37.111Z,6.12
2023-02-14T16:14:42.414Z,5.94
2023-02-14T16:17:46.111Z,5.75
2023-02-14T16:20:51.261Z,5.52
2023-02-14T16:24:12.228Z,5.35
2023-02-14T16:27:14.725Z,5.29
2023-02-14T16:30:19.168Z,5.10
2023-02-14T16:33:28.104Z,5.04
2023-02-14T16:36:33.940Z,4.97
2023-02-14T16:39:39.616Z,4.79
2023-02-14T16:42:43.826Z,4.70
2023-02-14T16:45:46.934Z,4.71
2023-02-14T16:48:52.863Z,4.68
2023-02-14T16:51:55.873Z,4.79
2023-02-14T16:55:01.259Z,4.58
2023-02-14T16:58:04.061Z,4.47
2023-02-14T17:01:07.167Z,4.64
2023-02-14T17:04:10.251Z,4.55
2023-02-14T17:07:16.029Z,4.35
2023-02-14T17:10:20.397Z,4.25
2023-02-14T17:13:27.745Z,4.08
2023-02-14T17:16:32.323Z,3.89
2023-02-14T17:19:37.057Z,3.81
2023-02-14T17:22:42.598Z,3.78
2023-02-14T17:25:45.739Z,3.89
2023-02-14T17:28:48.506Z,3.93
2023-02-14T17:31:51.592Z,4.05
2023-02-14T17:34:54.564Z,4.20
2023-02-14T17:37:57.701Z,4.02
2023-02-14T17:41:09.906Z,4.01
2023-02-14T17:44:13.295Z,3.96
2023-02-14T17:47:18.166Z,3.90
2023-02-14T17:50:24.497Z,3.89
2023-02-14T17:53:35.699Z,3.96
2023-02-14T17:56:39.007Z,3.93
2023-02-14T17:59:42.614Z,3.87
2023-02-14T18:02:45.693Z,4.07
2023-02-14T18:05:49.889Z,4.32
2023-02-14T18:08:56.742Z,4.26
2023-02-14T18:12:00.178Z,4.27
2023-02-14T18:15:06.003Z,4.38
2023-02-14T18:18:11.326Z,4.24
2023-02-14T18:21:16.469Z,4.10
2023-02-14T18:24:20.066Z,3.97
2023-02-14T18:27:22.967Z,4.04
2023-02-14T18:30:26.523Z,4.10
2023-02-14T18:33:29.176Z,4.18
2023-02-14T18:36:33.123Z,4.27
2023-02-14T18:39:36.389Z,4.38
2023-02-14T18:42:39.979Z,4.21
2023-02-14T18:45:42.842Z,4.01
2023-02-14T18:48:46.416Z,3.82
2023-02-14T18:51:49.361Z,3.88
2023-02-14T18:54:52.452Z,3.85
2023-02-14T18:57:55.319Z,3.90
2023-02-14T19:00:58.647Z,3.77
2023-02-14T19:04:06.481Z,3.59
2023-02-14T19:07:10.480Z,3.61
2023-02-14T19:10:13.119Z,3.57
2023-02-14T19:13:16.114Z,3.49
2023-02-14T19:16:22.216Z,3.39
2023-02-14T19:19:25.843Z,3.24
2023-02-14T19:22:28.658Z,3.12
2023-02-14T19:25:32.659Z,3.08
2023-02-14T19:28:35.593Z,2.99
2023-02-14T19:31:42.314Z,2.91
2023-02-14T19:34:46.529Z,2.82
2023-02-14T19:37:52.552Z,2.78
2023-02-14T19:40:56.841Z,2.73
2023-02-14T19:44:01.115Z,2.75
2023-02-14T19:47:19.248Z,2.87
2023-02-14T19:50:28.195Z,2.82
2023-02-14T19:53:33.622Z,2.94
2023-02-14T19:56:47.790Z,2.92
2023-02-14T19:59:50.761Z,2.82
2023-02-14T20:02:54.093Z,2.80
2023-02-14T20:05:57.032Z,2.70
2023-02-14T20:08:59.890Z,2.71
2023-02-14T20:12:04.576Z,2.57
2023-02-14T20:15:10.849Z,2.39
2023-02-14T20:18:14.365Z,2.42
2023-02-14T20:21:28.245Z,2.40
2023-02-14T20:24:32.515Z,2.31
2023-02-14T20:27:36.434Z,2.19
2023-02-14T20:30:40.457Z,2.12
2023-02-14T20:33:43.481Z,2.14
2023-02-14T20:36:53.405Z,2.11
2023-02-14T20:39:56.380Z,2.00
2023-02-14T20:42:59.589Z,1.79
2023-02-14T20:46:04.471Z,1.69
2023-02-14T20:49:07.684Z,1.60
2023-02-14T20:52:11.243Z,1.61
2023-02-14T20:55:14.476Z,1.65
2023-02-14T20:58:17.580Z,1.70
2023-02-14T21:01:23.628Z,1.56
2023-02-14T21:04:27.089Z,1.53
2023-02-14T21:07:30.827Z,1.45
2023-02-14T21:10:33.739Z,1.36
2023-02-14T21:13:37.322Z,1.34
2023-02-14T21:16:40.271Z,1.35
2023-02-14T21:19:43.418Z,1.36
2023-02-14T21:22:46.518Z,1.25
2023-02-14T21:25:49.334Z,1.20
2023-02-14T21:28:52.914Z,1.08
2023-02-14T21:31:56.236Z,1.00
2023-02-14T21:34:59.325Z,0.98
2023-02-14T21:38:02.479Z,0.88
2023-02-14T21:41:11.167Z,0.85
2023-02-14T21:44:34.413Z,0.77
2023-02-14T21:47:38.519Z,0.76
2023-02-14T21:50:42.125Z,0.72
2023-02-14T21:53:46.080Z,0.69
2023-02-14T21:56:49.886Z,0.69
2023-02-14T21:59:52.907Z,0.63
2023-02-14T22:02:56.328Z,0.53
2023-02-14T22:06:03.649Z,0.49
2023-02-14T22:09:07.016Z,0.57
2023-02-14T22:12:10.190Z,0.58
2023-02-14T22:15:12.914Z,0.53
2023-02-14T22:18:16.160Z,0.59
2023-02-14T22:21:21.585Z,0.49
2023-02-14T22:24:24.521Z,0.45
2023-02-14T22:27:27.132Z,0.39
2023-02-14T22:30:30.046Z,0.41
2023-02-14T22:33:32.581Z,0.38
2023-02-14T22:36:35.648Z,0.32
2023-02-14T22:39:38.301Z,0.35
2023-02-14T22:42:41.121Z,0.44
2023-02-14T22:45:43.688Z,0.43
2023-02-14T22:48:47.813Z,0.59
2023-02-14T22:51:50.300Z,0.59
2023-02-14T22:54:55.556Z,0.58
2023-02-14T22:57:58.231Z,0.56
2023-02-14T23:01:01.161Z,0.71
2023-02-14T23:04:04.531Z,0.56
2023-02-14T23:07:12.628Z,0.41
2023-02-14T23:10:15.396Z,0.33
2023-02-14T23:13:36.821Z,0.38
2023-02-14T23:16:58.658Z,0.30
2023-02-14T23:20:20.784Z,0.22
2023-02-14T23:23:23.907Z,0.13
2023-02-14T23:26:26.775Z,0.06
2023-02-14T23:29:29.843Z,-0.01
2023-02-14T23:32:32.795Z,-0.05
2023-02-14T23:35:37.602Z,-0.05
2023-02-14T23:38:40.500Z,-0.01
2023-02-14T23:41:49.220Z,0.08
2023-02-14T23:44:52.171Z,-0.05
2023-02-14T23:47:54.740Z,-0.10
2023-02-14T23:51:01.051Z,-0.21
2023-02-14T23:54:04.195Z,-0.19
2023-02-14T23:57:08.507Z,-0.15
